Terminal Aerodrome Forecast
Issued by NWS Wilmington, NC

Home | Current Version | Previous Version | Text Only | Print | Product List | Glossary On
Versions: 1 2 3 4 5 6 7 8 9 10 11 12 13 14 15 16 17 18
000
FTUS42 KILM 261100
TAFMYR
TAF
KMYR 261127Z 2612/2712 23005KT P6SM SCT025 SCT120 BKN250
      TEMPO 2614/2616 BKN025
     FM262000 20012KT P6SM SCT035 SCT250
     FM270400 23005KT P6SM SCT050=

USA.gov is the U.S. government's official web portal to all federal, state and local government web resources and services.